Time;durP1;ratioP1;P1;durP2;ratioP2;P2;SDS_P1;SDS_P2;PMS_P1;PMS_P2;Temp;Humidity;BMP_temperature;BMP_pressure;BME280_temperature;BME280_humidity;BME280_pressure;Samples;Min_cycle;Max_cycle;Signal;HPM_P1;HPM_P2
2023/08/10 00:00:12;;;;;;;2.75;2.65;;;17.90;99.90;;;18.35;80.99;101995.13;5056012;28;20127;-65
2023/08/10 00:02:41;;;;;;;2.88;2.78;;;17.90;99.90;;;18.46;79.76;102001.19;5063135;28;20045;-65
2023/08/10 00:05:11;;;;;;;3.00;2.90;;;18.10;99.90;;;18.05;79.02;101916.19;5056306;28;20053;-65
2023/08/10 00:07:40;;;;;;;3.38;3.28;;;18.10;99.90;;;18.53;79.37;102001.03;5055925;28;20175;-65
2023/08/10 00:10:09;;;;;;;3.10;3.00;;;18.10;99.90;;;18.54;80.80;102000.09;5062476;28;20426;-65
2023/08/10 00:12:39;;;;;;;2.80;2.70;;;18.10;99.90;;;18.57;81.77;101996.50;5064993;28;20059;-65
2023/08/10 00:15:08;;;;;;;2.72;2.63;;;18.20;99.90;;;18.44;80.81;102000.31;5067621;28;20079;-65
2023/08/10 00:17:36;;;;;;;2.83;2.72;;;18.10;99.90;;;18.33;81.27;102003.16;5055804;28;20090;-65
2023/08/10 00:20:10;;;;;;;2.90;2.80;;;17.90;99.90;;;18.21;81.72;102002.50;5064122;28;20048;-65
2023/08/10 00:22:39;;;;;;;2.78;2.67;;;17.80;99.90;;;17.99;84.25;101997.53;5073333;28;20059;-65
2023/08/10 00:25:08;;;;;;;2.90;2.80;;;17.60;99.90;;;18.06;84.54;101995.59;5065748;28;20051;-65
2023/08/10 00:27:38;;;;;;;2.97;2.88;;;17.60;99.90;;;18.00;84.05;101999.28;5065150;28;20119;-67
2023/08/10 00:30:08;;;;;;;2.50;2.40;;;17.60;99.90;;;18.17;83.92;102004.34;5062267;28;20045;-65
2023/08/10 00:32:37;;;;;;;2.72;2.63;;;17.70;99.90;;;18.15;83.19;102003.50;5067473;28;20049;-65
2023/08/10 00:35:06;;;;;;;3.20;3.10;;;17.70;99.90;;;18.10;83.15;101994.66;5074291;28;20036;-65
2023/08/10 00:37:36;;;;;;;2.72;2.63;;;17.70;99.90;;;18.13;83.07;101994.59;5064331;28;20045;-65
2023/08/10 00:40:09;;;;;;;2.65;2.55;;;17.70;99.90;;;18.18;83.00;101991.81;5073332;28;20303;-65
2023/08/10 00:42:37;;;;;;;2.88;2.78;;;17.80;99.90;;;18.22;83.07;101994.44;5065730;28;20041;-65
2023/08/10 00:45:07;;;;;;;2.90;2.80;;;17.80;99.90;;;18.35;82.31;101997.78;5071801;28;20497;-65
2023/08/10 00:47:36;;;;;;;2.92;2.83;;;17.90;99.90;;;18.40;81.36;101991.44;5062120;28;20055;-65
2023/08/10 00:50:07;;;;;;;2.55;2.45;;;18.00;99.90;;;18.45;80.66;101994.94;5066625;28;20544;-65
2023/08/10 00:52:36;;;;;;;2.95;2.85;;;18.10;99.90;;;18.52;79.95;101985.88;5055400;28;20055;-65
2023/08/10 00:55:07;;;;;;;3.00;2.90;;;18.10;99.90;;;18.56;80.00;101995.59;5054926;28;20049;-65
2023/08/10 00:57:35;;;;;;;2.78;2.67;;;18.10;99.90;;;18.56;82.23;101984.03;5055315;28;20059;-65
2023/08/10 01:00:09;;;;;;;3.35;3.25;;;18.10;99.90;;;18.57;82.82;101996.50;5064655;28;20072;-65
2023/08/10 01:02:39;;;;;;;3.17;3.08;;;18.10;99.90;;;18.59;82.50;101992.00;5063374;28;20044;-66
2023/08/10 01:05:10;;;;;;;2.80;2.70;;;18.20;99.90;;;18.64;81.83;102000.84;5066137;28;20057;-65
2023/08/10 01:07:49;;;;;;;2.50;2.40;;;18.20;99.90;;;18.58;81.77;101999.13;5062177;28;20044;-65
2023/08/10 01:10:29;;;;;;;3.00;2.90;;;18.20;99.90;;;18.56;82.08;102000.97;5065023;28;20044;-66
2023/08/10 01:13:11;;;;;;;2.88;2.78;;;18.20;99.90;;;18.55;82.10;102003.69;5055017;28;20045;-65
2023/08/10 01:15:46;;;;;;;3.15;3.05;;;18.20;99.90;;;18.57;81.64;101997.38;5065465;28;20052;-65
2023/08/10 01:18:17;;;;;;;2.80;2.70;;;18.10;99.90;;;18.54;81.85;101996.56;5070452;28;20053;-65
2023/08/10 01:20:48;;;;;;;2.78;2.67;;;18.10;99.90;;;18.56;82.16;101998.28;5055168;28;20047;-65
2023/08/10 01:23:24;;;;;;;2.70;2.60;;;18.10;99.90;;;18.57;82.23;101996.50;5070202;28;20045;-65
2023/08/10 01:25:54;;;;;;;2.78;2.67;;;18.20;99.90;;;18.55;82.32;101987.59;5063238;28;20061;-65
2023/08/10 01:28:24;;;;;;;2.83;2.72;;;18.10;99.90;;;18.53;82.17;101987.63;5062483;28;20402;-65
2023/08/10 01:30:53;;;;;;;3.70;3.50;;;18.10;99.90;;;18.55;82.58;101991.19;5058455;28;20521;-65
2023/08/10 01:33:21;;;;;;;2.70;2.60;;;18.10;99.90;;;18.62;82.29;101984.78;5078020;28;20041;-65
2023/08/10 01:35:50;;;;;;;2.90;2.80;;;18.20;99.90;;;18.63;81.38;101991.03;5061672;28;20044;-65
2023/08/10 01:38:18;;;;;;;2.40;2.30;;;18.20;99.90;;;18.55;81.14;101988.50;5065870;28;20494;-65
2023/08/10 01:40:47;;;;;;;2.60;2.50;;;18.20;99.90;;;18.44;81.44;101987.81;5063482;28;20033;-65
2023/08/10 01:43:17;;;;;;;2.63;2.53;;;18.10;99.90;;;18.42;81.01;101989.66;5064899;28;20044;-66
2023/08/10 01:45:50;;;;;;;2.70;2.60;;;18.00;99.90;;;18.34;81.10;101990.66;5064691;28;20048;-65
2023/08/10 01:48:24;;;;;;;3.00;2.90;;;17.90;99.90;;;18.29;81.32;102012.16;5063353;28;20073;-65
2023/08/10 01:50:54;;;;;;;3.15;3.05;;;17.90;99.90;;;18.22;81.72;101982.81;5069747;28;20045;-65
2023/08/10 01:53:28;;;;;;;2.97;2.88;;;17.90;99.90;;;18.24;82.00;101992.63;5064209;28;20045;-66
2023/08/10 01:55:57;;;;;;;2.70;2.60;;;17.80;99.90;;;18.13;81.97;101985.69;5054256;28;20041;-65
2023/08/10 01:58:27;;;;;;;2.78;2.67;;;17.80;99.90;;;18.09;82.74;101997.34;5062389;28;20103;-65
2023/08/10 02:00:56;;;;;;;2.92;2.83;;;17.60;99.90;;;17.97;83.64;101995.78;5067780;28;20573;-65
2023/08/10 02:03:24;;;;;;;3.10;3.00;;;17.50;99.90;;;17.92;84.09;102005.69;5069121;28;20057;-65
2023/08/10 02:05:53;;;;;;;2.90;2.80;;;17.50;99.90;;;17.86;83.93;102000.44;5065620;28;20055;-65
2023/08/10 02:08:21;;;;;;;2.80;2.70;;;17.40;99.90;;;17.80;83.62;101996.06;5053950;28;20130;-65
2023/08/10 02:10:50;;;;;;;3.03;2.92;;;17.40;99.90;;;17.79;83.41;101990.72;5060708;28;20045;-65
2023/08/10 02:13:18;;;;;;;2.92;2.83;;;17.40;99.90;;;17.79;83.74;101996.94;5063432;28;20053;-65
2023/08/10 02:15:48;;;;;;;8.00;7.50;;;17.30;99.90;;;17.84;83.71;101994.22;5058608;28;20049;-65
2023/08/10 02:18:18;;;;;;;2.70;2.60;;;17.40;99.90;;;17.86;84.17;101995.06;5055963;28;20037;-65
2023/08/10 02:20:47;;;;;;;3.33;3.22;;;17.40;99.90;;;17.88;84.42;102009.31;5063073;28;20146;-65
2023/08/10 02:23:15;;;;;;;2.65;2.55;;;17.40;99.90;;;17.82;85.09;101996.91;5064666;28;20048;-65
2023/08/10 02:25:43;;;;;;;3.03;2.92;;;17.40;99.90;;;17.80;85.86;102003.19;5069104;28;20045;-65
2023/08/10 02:28:12;;;;;;;2.80;2.70;;;17.40;99.90;;;17.66;85.80;101990.03;5077567;28;20091;-65
2023/08/10 02:30:42;;;;;;;3.25;3.15;;;17.30;99.90;;;17.65;85.82;101995.41;5060505;28;20053;-65
2023/08/10 02:33:11;;;;;;;3.05;2.95;;;17.20;99.90;;;17.69;84.94;101994.47;5064529;28;20037;-65
2023/08/10 02:35:40;;;;;;;2.73;2.63;;;17.20;99.90;;;17.65;84.82;101992.75;5057913;28;20482;-65
2023/08/10 02:38:08;;;;;;;2.70;2.60;;;17.20;99.90;;;17.59;85.37;101990.16;5062867;28;20053;-65
2023/08/10 02:40:36;;;;;;;2.78;2.67;;;17.20;99.90;;;17.51;86.13;101998.28;5063150;28;20505;-65
2023/08/10 02:43:05;;;;;;;3.88;3.67;;;17.00;99.90;;;17.48;86.58;101998.31;5063358;28;20482;-65
2023/08/10 02:45:33;;;;;;;2.70;2.60;;;17.00;99.90;;;17.49;86.43;101997.44;5062578;28;20543;-65
2023/08/10 02:48:02;;;;;;;2.85;2.75;;;17.00;99.90;;;17.52;86.05;101996.47;5060085;28;20072;-65
2023/08/10 02:50:32;;;;;;;2.70;2.60;;;17.10;99.90;;;17.56;85.86;101996.44;5064981;28;20081;-65
2023/08/10 02:53:01;;;;;;;2.95;2.85;;;17.10;99.90;;;17.64;85.59;101997.19;5052937;28;20041;-64
2023/08/10 02:55:29;;;;;;;2.80;2.70;;;17.20;99.90;;;17.64;85.49;101998.97;5059936;28;20057;-65
2023/08/10 02:57:58;;;;;;;2.80;2.70;;;17.20;99.90;;;17.73;85.54;102002.41;5063704;28;20079;-65
2023/08/10 03:00:26;;;;;;;3.10;3.00;;;17.30;99.90;;;17.74;85.53;101995.25;5070618;28;20064;-65
2023/08/10 03:02:54;;;;;;;2.60;2.50;;;17.30;99.90;;;17.74;85.60;102001.50;5058005;28;20045;-66
2023/08/10 03:05:23;;;;;;;2.92;2.83;;;17.30;99.90;;;17.71;85.42;101990.84;5063078;28;20071;-65
2023/08/10 03:07:53;;;;;;;2.97;2.88;;;17.30;99.90;;;17.73;85.51;101993.50;5062524;28;20045;-65
2023/08/10 03:10:21;;;;;;;2.80;2.70;;;17.30;99.90;;;17.77;85.67;101989.84;5063838;28;20041;-65
2023/08/10 03:12:50;;;;;;;2.70;2.60;;;17.30;99.90;;;17.85;85.91;101996.84;5068424;28;20719;-65
2023/08/10 03:15:19;;;;;;;2.83;2.72;;;17.40;99.90;;;17.88;85.59;101994.16;5059250;28;20136;-65
2023/08/10 03:17:48;;;;;;;3.20;3.10;;;17.50;99.90;;;17.92;86.06;101990.47;5051587;28;20047;-65
2023/08/10 03:20:17;;;;;;;3.00;2.90;;;17.50;99.90;;;17.99;86.78;101992.16;5052678;28;20442;-65
2023/08/10 03:22:47;;;;;;;3.00;2.90;;;17.60;99.90;;;18.05;86.57;101999.22;5062300;28;20436;-65
2023/08/10 03:25:17;;;;;;;3.10;3.00;;;17.60;99.90;;;18.16;86.24;101990.97;5059037;28;20441;-65
2023/08/10 03:27:46;;;;;;;2.90;2.80;;;17.70;99.90;;;18.17;85.81;101993.66;5063555;28;20141;-66
2023/08/10 03:30:18;;;;;;;3.20;3.10;;;17.80;99.90;;;18.15;85.68;101992.78;5068434;28;20127;-65
2023/08/10 03:32:47;;;;;;;2.90;2.80;;;17.70;99.90;;;18.11;85.52;101982.16;5059547;28;20508;-65
2023/08/10 03:35:16;;;;;;;3.05;2.95;;;17.80;99.90;;;18.15;85.55;101997.25;5051371;28;20485;-65
2023/08/10 03:37:44;;;;;;;2.70;2.60;;;17.70;99.90;;;18.06;86.00;101987.56;5059132;28;20048;-65
2023/08/10 03:40:13;;;;;;;2.80;2.70;;;17.70;99.90;;;18.09;86.32;101992.88;5060721;28;20052;-65
2023/08/10 03:42:43;;;;;;;2.70;2.60;;;17.70;99.90;;;18.13;85.92;102002.66;5062195;28;20052;-65
2023/08/10 03:45:11;;;;;;;3.10;3.00;;;17.70;99.90;;;18.02;86.32;102001.94;5069622;28;20051;-65
2023/08/10 03:47:39;;;;;;;2.92;2.83;;;17.60;99.90;;;17.92;86.83;101997.66;5058159;28;20094;-65
2023/08/10 03:50:10;;;;;;;3.63;3.42;;;17.50;99.90;;;17.70;87.85;101993.53;5063145;28;20136;-65
2023/08/10 03:52:38;;;;;;;2.90;2.80;;;17.30;99.90;;;17.77;88.18;101989.84;5061360;28;20049;-65
2023/08/10 03:55:07;;;;;;;2.83;2.72;;;17.30;99.90;;;17.92;87.94;101993.16;5064049;28;20082;-65
2023/08/10 03:57:36;;;;;;;2.88;2.78;;;17.50;99.90;;;17.99;87.60;101992.16;5052432;28;20045;-65
2023/08/10 04:00:08;;;;;;;2.90;2.80;;;17.50;99.90;;;18.07;88.03;102000.06;5062676;28;20048;-65
2023/08/10 04:02:48;;;;;;;2.97;2.88;;;17.60;99.90;;;18.09;87.70;102003.59;5052170;28;20056;-66
2023/08/10 04:05:20;;;;;;;3.03;2.92;;;17.70;99.90;;;18.13;87.23;102005.31;5059063;28;20060;-65
2023/08/10 04:07:49;;;;;;;4.07;3.88;;;17.70;99.90;;;18.11;87.05;102003.56;5059384;28;20054;-65
2023/08/10 04:10:17;;;;;;;5.70;5.18;;;17.70;99.90;;;18.12;87.01;102003.53;5063999;28;20036;-65
2023/08/10 04:12:45;;;;;;;3.20;3.10;;;17.70;99.90;;;18.09;87.38;102000.03;5061321;28;20120;-65
2023/08/10 04:15:15;;;;;;;2.97;2.88;;;17.70;99.90;;;17.97;88.01;102010.06;5069584;28;20159;-66
2023/08/10 04:17:44;;;;;;;3.22;3.13;;;17.60;99.90;;;18.04;87.89;102006.34;5061959;28;20064;-66
2023/08/10 04:20:14;;;;;;;3.22;3.13;;;17.70;99.90;;;18.00;88.06;101999.28;5068780;28;20041;-65
2023/08/10 04:22:42;;;;;;;3.20;3.10;;;17.60;99.90;;;18.01;88.29;102005.53;5062925;28;20049;-65
2023/08/10 04:25:10;;;;;;;6.32;6.03;;;17.70;99.90;;;18.08;88.33;102007.19;5060950;28;20283;-65
2023/08/10 04:27:40;;;;;;;2.85;2.75;;;17.70;99.90;;;17.99;88.72;101996.63;5063610;28;20063;-65
2023/08/10 04:30:10;;;;;;;3.03;2.92;;;17.60;99.90;;;17.89;89.66;101995.91;5050840;28;20095;-65
2023/08/10 04:32:40;;;;;;;3.00;2.90;;;17.50;99.90;;;17.77;90.88;102001.44;5051825;28;20045;-65
2023/08/10 04:35:09;;;;;;;3.10;3.00;;;17.40;99.90;;;17.83;91.33;102000.47;5052095;28;20051;-65
2023/08/10 04:37:38;;;;;;;3.33;3.22;;;17.40;99.90;;;17.89;91.19;101995.00;5054113;28;20122;-65
2023/08/10 04:40:09;;;;;;;3.22;3.13;;;17.50;99.90;;;17.95;90.95;102001.16;5065167;28;20080;-65
2023/08/10 04:42:40;;;;;;;2.80;2.70;;;17.60;99.90;;;18.09;90.63;102003.59;5066688;28;20553;-65
2023/08/10 04:45:10;;;;;;;3.20;3.10;;;17.70;99.90;;;18.03;90.07;102001.03;5063617;28;20041;-65
2023/08/10 04:47:41;;;;;;;3.20;3.10;;;17.80;99.90;;;18.02;90.07;101986.75;5055811;28;20043;-65
2023/08/10 04:50:11;;;;;;;3.17;3.08;;;17.80;99.90;;;18.03;90.27;101993.00;5055261;28;20106;-65
2023/08/10 04:52:41;;;;;;;3.33;3.22;;;17.80;99.90;;;18.05;90.27;101996.53;5055215;28;20513;-65
2023/08/10 04:55:11;;;;;;;3.60;3.40;;;17.80;99.90;;;18.04;90.47;101989.38;5057284;28;20041;-65
2023/08/10 04:57:39;;;;;;;3.05;2.95;;;17.80;99.90;;;18.01;90.83;101987.66;5064310;28;20044;-65
2023/08/10 05:00:13;;;;;;;3.00;2.90;;;17.80;99.90;;;18.09;90.93;101986.66;5066180;28;20444;-64
2023/08/10 05:02:43;;;;;;;3.00;2.90;;;17.90;99.90;;;18.16;90.69;101989.19;5063564;28;20083;-64
2023/08/10 05:05:12;;;;;;;3.03;2.92;;;17.90;99.90;;;18.17;91.13;101999.00;5066240;28;20075;-64
2023/08/10 05:07:41;;;;;;;3.00;2.90;;;17.90;99.90;;;18.20;91.40;101995.38;5064648;28;20068;-65
2023/08/10 05:10:11;;;;;;;3.03;2.92;;;17.90;99.90;;;18.19;91.92;101990.94;5065046;28;20037;-64
2023/08/10 05:12:40;;;;;;;3.90;3.63;;;17.90;99.90;;;18.07;92.92;101992.03;5065250;28;20052;-66
2023/08/10 05:15:10;;;;;;;6.97;3.38;;;17.80;99.90;;;17.85;94.98;101983.47;5063930;28;20064;-64
2023/08/10 05:17:39;;;;;;;3.40;3.30;;;17.60;99.90;;;17.73;95.99;101980.13;5061815;28;20053;-64
2023/08/10 05:20:14;;;;;;;3.42;3.33;;;17.40;99.90;;;17.72;96.10;101981.91;5066553;28;20036;-69
2023/08/10 05:22:43;;;;;;;3.58;3.47;;;17.30;99.90;;;17.75;97.06;101989.00;5054612;28;20040;-63
2023/08/10 05:25:14;;;;;;;3.00;2.90;;;17.40;99.90;;;17.62;97.22;101968.69;5054538;28;20036;-66
2023/08/10 05:27:47;;;;;;;3.35;3.25;;;17.30;99.90;;;17.67;97.51;101988.25;5054748;28;20053;-65
2023/08/10 05:30:16;;;;;;;3.30;3.20;;;17.30;99.90;;;17.74;97.30;101992.59;5057727;28;20131;-64
2023/08/10 05:32:44;;;;;;;3.45;3.35;;;17.30;99.90;;;17.90;96.96;101996.78;5062538;28;20048;-64
2023/08/10 05:35:15;;;;;;;3.15;3.05;;;17.40;99.90;;;18.09;95.92;102000.94;5062477;28;20112;-65
2023/08/10 05:37:44;;;;;;;3.00;2.90;;;17.70;99.90;;;18.22;95.27;102001.56;5065506;28;20040;-65
2023/08/10 05:40:12;;;;;;;3.15;3.05;;;17.80;99.90;;;18.37;94.40;102009.38;5063431;28;20037;-64
2023/08/10 05:42:42;;;;;;;3.40;3.30;;;18.00;99.90;;;18.51;93.84;102013.59;5064915;28;20068;-65
2023/08/10 05:45:15;;;;;;;2.78;2.67;;;18.10;99.90;;;18.71;93.05;102010.53;5064701;28;20080;-64
2023/08/10 05:47:45;;;;;;;2.90;2.80;;;18.40;99.90;;;18.85;92.17;102020.03;5062897;28;20485;-65
2023/08/10 05:50:16;;;;;;;2.70;2.60;;;18.50;99.90;;;18.96;90.82;102017.16;5065770;28;20044;-65
2023/08/10 05:52:45;;;;;;;2.65;2.55;;;18.60;99.90;;;18.99;89.99;101997.44;5062522;28;20047;-64
2023/08/10 05:55:14;;;;;;;2.80;2.70;;;18.70;99.90;;;19.15;89.13;102012.28;5065353;28;20109;-63
2023/08/10 05:57:43;;;;;;;2.95;2.85;;;18.80;99.90;;;19.17;88.81;102014.03;5063490;28;20148;-63
2023/08/10 06:00:13;;;;;;;2.97;2.88;;;18.90;99.90;;;19.16;87.59;102017.66;5063935;28;20094;-65
2023/08/10 06:02:42;;;;;;;2.72;2.63;;;18.90;99.90;;;19.20;86.58;102011.25;5064664;28;20055;-64
2023/08/10 06:05:12;;;;;;;2.83;2.72;;;18.90;99.90;;;19.22;85.63;102008.56;5062627;28;20053;-64
2023/08/10 06:07:47;;;;;;;3.05;2.95;;;18.90;99.90;;;19.28;84.79;102011.13;5065806;28;20052;-65
2023/08/10 06:10:18;;;;;;;3.10;3.00;;;19.00;99.90;;;18.69;83.84;101910.47;5062319;28;20056;-64
2023/08/10 06:12:47;;;;;;;2.80;2.70;;;19.00;99.90;;;19.34;83.39;102017.25;5064378;28;20059;-64
2023/08/10 06:15:16;;;;;;;2.70;2.60;;;19.00;99.90;;;19.40;83.06;102018.91;5063306;28;20044;-63
2023/08/10 06:17:44;;;;;;;2.83;2.72;;;19.00;99.90;;;19.43;82.88;102008.13;5063364;28;20048;-64
2023/08/10 06:20:16;;;;;;;2.85;2.75;;;19.10;99.90;;;19.43;82.98;102017.06;5064627;28;20052;-64
2023/08/10 06:22:47;;;;;;;2.72;2.63;;;19.10;99.90;;;19.47;83.06;102016.06;5061975;28;20460;-64
2023/08/10 06:25:16;;;;;;;2.73;2.63;;;19.10;99.90;;;19.49;82.96;102018.72;5053711;28;20131;-64
2023/08/10 06:27:44;;;;;;;2.70;2.60;;;19.20;99.90;;;19.57;82.99;102011.34;5060451;28;20338;-64
2023/08/10 06:30:14;;;;;;;2.42;2.33;;;19.20;99.90;;;19.63;83.50;102017.47;5053330;28;20076;-64
2023/08/10 06:32:43;;;;;;;2.85;2.75;;;19.30;99.90;;;19.60;82.87;102022.03;5053220;28;20053;-66
2023/08/10 06:35:12;;;;;;;2.67;2.58;;;19.30;99.90;;;19.66;83.03;102024.59;5077018;28;20106;-66
2023/08/10 06:37:42;;;;;;;2.83;2.72;;;19.30;99.90;;;19.67;83.23;102029.03;5063514;28;20053;-63
2023/08/10 06:40:14;;;;;;;3.35;2.92;;;19.30;99.90;;;19.62;83.08;102022.91;5062000;28;20510;-66
2023/08/10 06:42:43;;;;;;;2.85;2.75;;;19.40;99.90;;;19.72;83.63;102033.38;5053393;28;20041;-64
2023/08/10 06:45:18;;;;;;;2.80;2.70;;;19.40;99.90;;;19.82;84.32;102017.06;5060050;28;20041;-64
2023/08/10 06:47:46;;;;;;;2.75;2.65;;;19.50;99.90;;;19.80;83.57;102022.47;5058889;28;20040;-64
2023/08/10 06:50:16;;;;;;;2.65;2.55;;;19.60;99.90;;;19.87;82.98;102023.19;5062752;28;20123;-64
2023/08/10 06:52:45;;;;;;;3.00;2.90;;;19.60;99.90;;;19.83;81.30;102024.19;5059201;28;20049;-64
2023/08/10 06:55:15;;;;;;;2.88;2.78;;;19.60;99.90;;;19.88;80.84;102023.16;5079714;28;20151;-65
2023/08/10 06:57:44;;;;;;;2.53;2.42;;;19.60;99.90;;;19.97;80.73;102019.38;5061231;28;20049;-65
2023/08/10 07:00:22;;;;;;;2.80;2.70;;;19.70;99.90;;;20.01;80.17;102019.25;5060958;28;20041;-64
2023/08/10 07:02:54;;;;;;;2.63;2.53;;;19.70;99.90;;;20.08;79.68;102015.50;5062502;28;20063;-64
2023/08/10 07:05:26;;;;;;;;;;;19.80;99.90;;;19.58;79.58;101920.06;5063886;28;20048;-62
2023/08/10 07:07:55;;;;;;;;;;;19.90;99.90;;;20.28;79.34;102012.34;5061758;28;20366;-63
2023/08/10 07:10:25;;;;;;;3.10;3.00;;;20.00;99.90;;;20.32;78.50;102020.28;5060745;28;19921;-63
2023/08/10 07:12:53;;;;;;;2.63;2.53;;;20.00;99.90;;;20.38;78.17;102009.34;5052589;28;20040;-66
2023/08/10 07:15:21;;;;;;;2.80;2.70;;;20.10;99.90;;;20.51;78.47;102017.97;5052431;28;20052;-66
2023/08/10 07:17:50;;;;;;;2.50;2.40;;;20.20;99.90;;;20.50;77.14;102019.78;5052775;28;20049;-71
2023/08/10 07:20:19;;;;;;;2.67;2.58;;;20.20;99.90;;;20.46;76.58;102015.41;5054232;28;20044;-65
2023/08/10 07:22:48;;;;;;;2.78;2.67;;;20.20;99.90;;;20.59;76.09;102013.28;5062221;28;20044;-71
2023/08/10 07:25:18;;;;;;;2.53;2.42;;;20.30;99.90;;;20.57;75.13;102021.41;5058692;28;20073;-66
2023/08/10 07:27:49;;;;;;;2.83;2.72;;;20.30;99.90;;;20.63;75.42;102031.09;5063728;28;20048;-67
2023/08/10 07:30:17;;;;;;;3.05;2.95;;;20.30;99.90;;;20.16;74.26;101946.31;5068053;28;20041;-67
2023/08/10 07:32:46;;;;;;;2.65;2.55;;;20.40;99.90;;;20.63;73.37;102026.56;5061239;28;20390;-67
2023/08/10 07:35:15;;;;;;;2.45;2.35;;;20.40;99.90;;;20.75;73.24;102037.94;5070529;28;20052;-67
2023/08/10 07:37:43;;;;;;;2.90;2.80;;;20.40;99.90;;;20.71;72.67;102041.66;5061403;28;20440;-67
2023/08/10 07:40:12;;;;;;;2.80;2.70;;;20.40;99.90;;;20.69;72.54;102026.41;5062709;28;20049;-69
2023/08/10 07:42:40;;;;;;;2.67;2.58;;;20.40;99.90;;;20.75;72.33;102030.72;5062325;28;20048;-68
2023/08/10 07:45:11;;;;;;;2.95;2.85;;;20.40;99.90;;;20.77;72.17;102028.03;5062020;28;20051;-68
2023/08/10 07:47:41;;;;;;;3.22;3.13;;;20.50;99.90;;;20.79;72.26;102024.34;5063419;28;20048;-69
2023/08/10 07:50:10;;;;;;;3.03;2.92;;;20.50;99.90;;;20.79;72.39;102028.88;5061023;28;20049;-69
2023/08/10 07:52:39;;;;;;;2.45;2.35;;;20.50;99.90;;;20.89;73.00;102033.03;5052169;28;20091;-67
2023/08/10 07:55:08;;;;;;;2.78;2.67;;;20.60;99.90;;;20.95;72.54;102039.16;5052336;28;20049;-68
2023/08/10 07:57:36;;;;;;;2.40;2.30;;;20.60;99.90;;;20.97;72.45;102037.28;5051999;28;20049;-68
2023/08/10 08:00:06;;;;;;;2.78;2.67;;;20.70;99.90;;;21.03;72.67;102037.16;5054032;28;20099;-68
2023/08/10 08:02:42;;;;;;;3.03;2.58;;;20.80;99.90;;;21.01;70.82;102051.56;5061710;28;20507;-68
2023/08/10 08:05:11;;;;;;;;;;;20.70;99.90;;;21.08;71.34;102045.97;5064272;28;20061;-67
2023/08/10 08:07:40;;;;;;;2.72;2.63;;;20.80;99.90;;;21.00;70.00;102044.41;5060247;28;19956;-68
2023/08/10 08:10:09;;;;;;;3.38;3.17;;;20.70;99.90;;;20.98;70.64;102051.63;5060196;28;20044;-68
2023/08/10 08:12:38;;;;;;;3.22;3.00;;;20.70;99.90;;;21.01;70.62;102052.47;5064433;28;20399;-68
2023/08/10 08:15:07;;;;;;;7.75;5.20;;;20.70;99.90;;;21.11;71.10;102055.75;5065067;28;20095;-68
2023/08/10 08:18:28;;;;;;;2.67;2.58;;;20.80;99.90;;;21.10;69.09;102044.09;5066302;28;20547;-68
2023/08/10 08:20:57;;;;;;;2.70;2.60;;;20.80;99.90;;;21.13;69.39;102043.16;5064974;28;20540;-68
2023/08/10 08:23:26;;;;;;;2.57;2.47;;;20.80;99.90;;;21.13;69.89;102035.06;5066069;28;20047;-68
2023/08/10 08:25:54;;;;;;;2.75;2.65;;;20.90;99.90;;;21.20;70.39;102042.03;5065602;28;20052;-68
2023/08/10 08:28:23;;;;;;;2.42;2.33;;;20.90;99.90;;;21.28;70.23;102035.50;5065007;28;20049;-68
2023/08/10 08:30:53;;;;;;;2.30;2.20;;;21.00;99.90;;;21.27;69.17;102040.94;5066487;28;20044;-70
2023/08/10 08:33:21;;;;;;;2.50;2.40;;;21.00;99.90;;;21.35;69.31;102044.28;5064031;28;20052;-70
2023/08/10 08:35:50;;;;;;;2.60;2.50;;;21.00;99.90;;;21.37;67.92;102045.09;5067244;28;20040;-68
2023/08/10 08:38:20;;;;;;;2.70;2.60;;;21.10;99.90;;;21.39;68.05;102046.81;5054339;28;20493;-68
2023/08/10 08:40:49;;;;;;;2.72;2.63;;;21.10;99.90;;;21.43;68.06;102048.50;5055318;28;20072;-68
2023/08/10 08:43:18;;;;;;;2.55;2.45;;;21.10;99.90;;;21.48;68.61;102046.56;5055213;28;20037;-68
2023/08/10 08:45:47;;;;;;;2.40;2.30;;;21.20;99.90;;;21.53;68.11;102050.00;5056960;28;20055;-68
2023/08/10 08:48:17;;;;;;;2.70;2.60;;;21.20;99.90;;;21.63;67.80;102049.69;5064790;28;20052;-69
2023/08/10 08:50:47;;;;;;;2.63;2.53;;;21.30;99.90;;;21.68;68.09;102043.22;5066024;28;20055;-68
2023/08/10 08:53:16;;;;;;;2.60;2.50;;;21.40;99.90;;;21.77;69.17;102045.66;5064188;28;20091;-69
2023/08/10 08:55:46;;;;;;;2.53;2.42;;;21.50;99.90;;;21.76;68.25;102046.56;5066749;28;20046;-69
2023/08/10 08:58:16;;;;;;;2.60;2.50;;;21.50;99.90;;;21.70;68.20;102030.59;5063688;28;20052;-68
2023/08/10 09:00:48;;;;;;;2.40;2.30;;;21.50;99.90;;;21.74;68.52;102047.56;5066214;28;20442;-68
2023/08/10 09:03:17;;;;;;;2.33;2.22;;;21.50;99.90;;;21.79;67.90;102040.22;5064761;28;20041;-68
2023/08/10 09:05:48;;;;;;;2.72;2.63;;;21.50;99.90;;;21.78;67.44;102042.00;5064324;28;20080;-68
2023/08/10 09:08:18;;;;;;;2.70;2.60;;;21.50;99.90;;;21.81;66.87;102030.31;5065819;28;20048;-68
2023/08/10 09:10:49;;;;;;;2.40;2.30;;;21.50;99.90;;;21.87;68.09;102031.00;5063685;28;20049;-68
2023/08/10 09:13:21;;;;;;;2.53;2.42;;;21.60;99.90;;;21.88;66.76;102035.44;5063494;28;20056;-68
2023/08/10 09:16:06;;;;;;;2.35;2.25;;;21.60;99.90;;;21.86;66.28;102028.31;5065408;28;20059;-68
2023/08/10 09:18:37;;;;;;;3.72;3.42;;;21.60;99.90;;;21.90;66.00;102032.69;5062879;28;20134;-69
2023/08/10 09:21:14;;;;;;;2.55;2.45;;;21.60;99.90;;;21.87;64.35;102027.41;5063245;28;20041;-69
2023/08/10 09:23:44;;;;;;;2.78;2.67;;;21.60;99.90;;;21.90;64.89;102028.19;5063743;28;20093;-68
2023/08/10 09:26:20;;;;;;;12.70;3.30;;;21.60;99.90;;;21.98;65.10;102031.53;5065570;28;20048;-68
2023/08/10 09:28:51;;;;;;;2.58;2.47;;;21.70;99.90;;;22.05;65.05;102037.56;5054547;28;20049;-68
2023/08/10 09:31:25;;;;;;;2.60;2.50;;;21.70;99.90;;;22.14;64.86;102037.28;5054694;28;20069;-68
2023/08/10 09:33:55;;;;;;;2.60;2.50;;;21.90;99.90;;;22.15;63.20;102031.84;5054442;28;20041;-67
2023/08/10 09:36:25;;;;;;;2.67;2.58;;;21.90;99.90;;;22.21;63.75;102026.25;5057090;28;20048;-67
2023/08/10 09:38:55;;;;;;;3.58;3.45;;;22.00;99.90;;;22.33;64.69;102031.22;5062989;28;20128;-67
2023/08/10 09:41:25;;;;;;;2.63;2.53;;;22.10;99.90;;;22.41;63.78;102044.44;5066181;28;20097;-68
2023/08/10 09:43:53;;;;;;;2.63;2.53;;;22.20;99.90;;;22.50;63.10;102040.53;5062950;28;20090;-67
2023/08/10 09:46:21;;;;;;;2.40;2.30;;;22.30;99.90;;;22.57;62.84;102050.22;5072438;28;20076;-68
2023/08/10 09:48:50;;;;;;;2.58;2.47;;;22.30;99.90;;;22.55;61.69;102049.34;5063166;28;20118;-68
2023/08/10 09:51:19;;;;;;;2.58;2.47;;;22.30;99.90;;;22.69;62.55;102052.47;5064246;28;20147;-68
2023/08/10 09:53:48;;;;;;;2.63;2.53;;;22.40;99.90;;;22.71;62.14;102039.78;5063901;28;20038;-68
2023/08/10 09:56:17;;;;;;;2.65;2.55;;;22.50;99.90;;;22.82;62.25;102046.56;5063467;28;20512;-69
2023/08/10 09:58:47;;;;;;;2.38;2.28;;;22.50;99.90;;;22.89;61.78;102049.94;5064760;28;20054;-68
2023/08/10 10:01:16;;;;;;;2.10;2.00;;;22.60;99.90;;;22.96;61.82;102060.44;5062176;28;20045;-68
2023/08/10 10:03:45;;;;;;;2.50;2.40;;;22.70;99.90;;;22.95;62.11;102052.41;5061542;28;20057;-68
2023/08/10 10:06:16;;;;;;;2.83;2.72;;;22.70;99.90;;;23.06;61.07;102044.78;5062084;28;20048;-69
2023/08/10 10:08:54;;;;;;;2.53;2.42;;;22.80;99.90;;;23.16;60.96;102035.41;5064789;28;20044;-69
2023/08/10 10:11:27;;;;;;;2.15;2.05;;;22.90;99.90;;;23.26;60.85;102045.81;5064481;28;20956;-68
2023/08/10 10:13:58;;;;;;;2.45;2.35;;;23.00;99.90;;;23.42;60.45;102035.34;5061573;28;20041;-68
2023/08/10 10:16:28;;;;;;;2.33;2.22;;;23.20;99.90;;;23.50;59.73;102041.31;5053618;28;20094;-67
2023/08/10 10:18:57;;;;;;;2.10;2.00;;;23.30;99.90;;;23.63;60.35;102039.03;5053370;28;20079;-68
2023/08/10 10:21:26;;;;;;;2.25;2.15;;;23.40;99.90;;;23.77;59.34;102037.50;5053304;28;20120;-65
2023/08/10 10:23:59;;;;;;;2.00;1.90;;;23.50;99.90;;;23.96;59.51;102037.66;5055028;28;20490;-66